sensor_id;sensor_type;location;lat;lon;timestamp;P1;durP1;ratioP1;P2;durP2;ratioP2
11827;SDS011;5971;49.646;8.568;2023-03-03T00:01:13;4.85;;;4.25;;
11827;SDS011;5971;49.646;8.568;2023-03-03T00:04:15;4.05;;;2.58;;
11827;SDS011;5971;49.646;8.568;2023-03-03T00:07:16;5.38;;;2.75;;
11827;SDS011;5971;49.646;8.568;2023-03-03T00:10:23;4.80;;;3.47;;
11827;SDS011;5971;49.646;8.568;2023-03-03T00:13:25;5.72;;;3.40;;
11827;SDS011;5971;49.646;8.568;2023-03-03T00:16:28;7.80;;;3.42;;
11827;SDS011;5971;49.646;8.568;2023-03-03T00:19:31;3.03;;;2.75;;
11827;SDS011;5971;49.646;8.568;2023-03-03T00:22:36;4.85;;;3.53;;
11827;SDS011;5971;49.646;8.568;2023-03-03T00:25:38;3.97;;;2.85;;
11827;SDS011;5971;49.646;8.568;2023-03-03T00:28:47;4.10;;;2.03;;
11827;SDS011;5971;49.646;8.568;2023-03-03T00:31:48;3.22;;;2.80;;
11827;SDS011;5971;49.646;8.568;2023-03-03T00:34:51;5.70;;;3.08;;
11827;SDS011;5971;49.646;8.568;2023-03-03T00:37:54;4.95;;;2.78;;
11827;SDS011;5971;49.646;8.568;2023-03-03T00:40:55;5.00;;;2.90;;
11827;SDS011;5971;49.646;8.568;2023-03-03T00:43:57;3.78;;;2.80;;
11827;SDS011;5971;49.646;8.568;2023-03-03T00:53:28;7.05;;;2.85;;
11827;SDS011;5971;49.646;8.568;2023-03-03T00:59:31;4.78;;;3.10;;
11827;SDS011;5971;49.646;8.568;2023-03-03T01:02:32;3.10;;;2.03;;
11827;SDS011;5971;49.646;8.568;2023-03-03T01:05:33;7.38;;;3.45;;
11827;SDS011;5971;49.646;8.568;2023-03-03T01:08:35;4.05;;;2.80;;
11827;SDS011;5971;49.646;8.568;2023-03-03T01:11:36;3.60;;;3.15;;
11827;SDS011;5971;49.646;8.568;2023-03-03T01:14:38;5.05;;;2.97;;
11827;SDS011;5971;49.646;8.568;2023-03-03T01:17:40;3.78;;;3.28;;
11827;SDS011;5971;49.646;8.568;2023-03-03T01:20:42;4.43;;;3.10;;
11827;SDS011;5971;49.646;8.568;2023-03-03T01:23:43;3.63;;;2.60;;
11827;SDS011;5971;49.646;8.568;2023-03-03T01:26:45;4.20;;;2.97;;
11827;SDS011;5971;49.646;8.568;2023-03-03T01:29:46;6.07;;;3.13;;
11827;SDS011;5971;49.646;8.568;2023-03-03T01:32:47;9.20;;;5.13;;
11827;SDS011;5971;49.646;8.568;2023-03-03T01:35:49;6.78;;;3.67;;
11827;SDS011;5971;49.646;8.568;2023-03-03T01:38:50;4.60;;;3.03;;
11827;SDS011;5971;49.646;8.568;2023-03-03T01:41:52;4.80;;;3.00;;
11827;SDS011;5971;49.646;8.568;2023-03-03T01:48:17;11.63;;;3.67;;
11827;SDS011;5971;49.646;8.568;2023-03-03T01:54:29;3.83;;;2.45;;
11827;SDS011;5971;49.646;8.568;2023-03-03T01:57:34;6.30;;;2.50;;
11827;SDS011;5971;49.646;8.568;2023-03-03T02:00:38;3.78;;;2.80;;
11827;SDS011;5971;49.646;8.568;2023-03-03T02:03:41;6.15;;;4.22;;
11827;SDS011;5971;49.646;8.568;2023-03-03T02:06:44;5.13;;;3.47;;
11827;SDS011;5971;49.646;8.568;2023-03-03T02:13:01;4.90;;;2.42;;
11827;SDS011;5971;49.646;8.568;2023-03-03T02:16:02;5.43;;;2.78;;
11827;SDS011;5971;49.646;8.568;2023-03-03T02:19:04;4.05;;;2.17;;
11827;SDS011;5971;49.646;8.568;2023-03-03T02:22:10;4.18;;;2.28;;
11827;SDS011;5971;49.646;8.568;2023-03-03T02:25:13;3.92;;;2.50;;
11827;SDS011;5971;49.646;8.568;2023-03-03T02:28:15;4.03;;;2.05;;
11827;SDS011;5971;49.646;8.568;2023-03-03T02:31:18;5.07;;;2.92;;
11827;SDS011;5971;49.646;8.568;2023-03-03T02:34:19;3.72;;;2.85;;
11827;SDS011;5971;49.646;8.568;2023-03-03T02:37:21;4.18;;;2.72;;
11827;SDS011;5971;49.646;8.568;2023-03-03T02:40:23;6.50;;;2.72;;
11827;SDS011;5971;49.646;8.568;2023-03-03T02:43:28;7.72;;;4.38;;
11827;SDS011;5971;49.646;8.568;2023-03-03T02:49:33;2.67;;;2.42;;
11827;SDS011;5971;49.646;8.568;2023-03-03T02:52:35;5.40;;;2.45;;
11827;SDS011;5971;49.646;8.568;2023-03-03T02:55:37;4.95;;;3.83;;
11827;SDS011;5971;49.646;8.568;2023-03-03T02:58:38;4.25;;;2.78;;
11827;SDS011;5971;49.646;8.568;2023-03-03T03:01:40;4.60;;;3.15;;
11827;SDS011;5971;49.646;8.568;2023-03-03T03:04:41;4.38;;;3.60;;
11827;SDS011;5971;49.646;8.568;2023-03-03T03:07:43;3.03;;;1.50;;
11827;SDS011;5971;49.646;8.568;2023-03-03T03:10:44;4.90;;;3.65;;
11827;SDS011;5971;49.646;8.568;2023-03-03T03:13:45;5.53;;;3.90;;
11827;SDS011;5971;49.646;8.568;2023-03-03T03:16:46;6.45;;;3.47;;
11827;SDS011;5971;49.646;8.568;2023-03-03T03:19:48;5.95;;;2.00;;
11827;SDS011;5971;49.646;8.568;2023-03-03T03:22:49;4.85;;;3.00;;
11827;SDS011;5971;49.646;8.568;2023-03-03T03:25:51;2.75;;;2.08;;
11827;SDS011;5971;49.646;8.568;2023-03-03T03:28:52;4.47;;;3.45;;
11827;SDS011;5971;49.646;8.568;2023-03-03T03:31:53;4.43;;;2.40;;
11827;SDS011;5971;49.646;8.568;2023-03-03T03:34:55;3.35;;;2.60;;
11827;SDS011;5971;49.646;8.568;2023-03-03T03:37:56;3.13;;;2.67;;
11827;SDS011;5971;49.646;8.568;2023-03-03T03:40:57;3.97;;;2.30;;
11827;SDS011;5971;49.646;8.568;2023-03-03T03:43:59;6.90;;;3.83;;
11827;SDS011;5971;49.646;8.568;2023-03-03T03:47:00;5.22;;;3.45;;
11827;SDS011;5971;49.646;8.568;2023-03-03T03:50:01;4.03;;;3.45;;
11827;SDS011;5971;49.646;8.568;2023-03-03T03:53:03;5.65;;;2.83;;
11827;SDS011;5971;49.646;8.568;2023-03-03T03:56:05;4.70;;;2.90;;
11827;SDS011;5971;49.646;8.568;2023-03-03T03:59:06;6.00;;;3.17;;
11827;SDS011;5971;49.646;8.568;2023-03-03T04:02:08;6.43;;;3.08;;
11827;SDS011;5971;49.646;8.568;2023-03-03T04:05:09;5.00;;;2.55;;
11827;SDS011;5971;49.646;8.568;2023-03-03T04:08:11;3.45;;;2.70;;
11827;SDS011;5971;49.646;8.568;2023-03-03T04:11:12;4.85;;;3.47;;
11827;SDS011;5971;49.646;8.568;2023-03-03T04:14:13;5.68;;;3.40;;
11827;SDS011;5971;49.646;8.568;2023-03-03T04:17:15;5.55;;;3.20;;
11827;SDS011;5971;49.646;8.568;2023-03-03T04:20:17;4.00;;;3.08;;
11827;SDS011;5971;49.646;8.568;2023-03-03T04:23:18;3.28;;;2.95;;
11827;SDS011;5971;49.646;8.568;2023-03-03T04:26:20;5.38;;;4.07;;
11827;SDS011;5971;49.646;8.568;2023-03-03T04:29:21;5.72;;;3.78;;
11827;SDS011;5971;49.646;8.568;2023-03-03T04:32:22;2.50;;;2.20;;
11827;SDS011;5971;49.646;8.568;2023-03-03T04:35:24;5.25;;;2.92;;
11827;SDS011;5971;49.646;8.568;2023-03-03T04:38:25;8.05;;;3.42;;
11827;SDS011;5971;49.646;8.568;2023-03-03T04:41:27;6.45;;;4.85;;
11827;SDS011;5971;49.646;8.568;2023-03-03T04:44:28;3.78;;;2.63;;
11827;SDS011;5971;49.646;8.568;2023-03-03T04:47:30;7.60;;;3.95;;
11827;SDS011;5971;49.646;8.568;2023-03-03T04:50:32;5.38;;;3.15;;
11827;SDS011;5971;49.646;8.568;2023-03-03T04:53:34;8.98;;;5.80;;
11827;SDS011;5971;49.646;8.568;2023-03-03T04:56:38;7.07;;;4.80;;
11827;SDS011;5971;49.646;8.568;2023-03-03T04:59:39;8.15;;;4.30;;
11827;SDS011;5971;49.646;8.568;2023-03-03T05:02:41;4.65;;;4.18;;
11827;SDS011;5971;49.646;8.568;2023-03-03T05:05:42;13.80;;;5.93;;
11827;SDS011;5971;49.646;8.568;2023-03-03T05:08:44;18.00;;;9.50;;
11827;SDS011;5971;49.646;8.568;2023-03-03T05:11:45;7.82;;;4.80;;
11827;SDS011;5971;49.646;8.568;2023-03-03T05:14:47;8.43;;;4.13;;
11827;SDS011;5971;49.646;8.568;2023-03-03T05:17:48;7.25;;;4.30;;
11827;SDS011;5971;49.646;8.568;2023-03-03T05:20:50;6.45;;;4.13;;
11827;SDS011;5971;49.646;8.568;2023-03-03T05:23:52;8.20;;;4.13;;
11827;SDS011;5971;49.646;8.568;2023-03-03T05:26:53;9.57;;;5.13;;
11827;SDS011;5971;49.646;8.568;2023-03-03T05:29:54;3.70;;;2.88;;
11827;SDS011;5971;49.646;8.568;2023-03-03T05:32:56;3.90;;;3.10;;
11827;SDS011;5971;49.646;8.568;2023-03-03T05:35:59;5.68;;;3.35;;
11827;SDS011;5971;49.646;8.568;2023-03-03T05:39:00;7.65;;;3.47;;
11827;SDS011;5971;49.646;8.568;2023-03-03T05:42:02;5.50;;;3.08;;
11827;SDS011;5971;49.646;8.568;2023-03-03T05:45:03;8.40;;;3.28;;
11827;SDS011;5971;49.646;8.568;2023-03-03T05:48:05;3.97;;;2.72;;
11827;SDS011;5971;49.646;8.568;2023-03-03T05:51:06;5.18;;;3.67;;
11827;SDS011;5971;49.646;8.568;2023-03-03T05:54:08;5.03;;;4.10;;
11827;SDS011;5971;49.646;8.568;2023-03-03T05:57:09;7.32;;;5.35;;
11827;SDS011;5971;49.646;8.568;2023-03-03T06:00:11;5.75;;;4.00;;
11827;SDS011;5971;49.646;8.568;2023-03-03T06:03:13;7.30;;;3.47;;
11827;SDS011;5971;49.646;8.568;2023-03-03T06:06:14;7.82;;;3.63;;
11827;SDS011;5971;49.646;8.568;2023-03-03T06:09:17;12.18;;;5.68;;
11827;SDS011;5971;49.646;8.568;2023-03-03T06:12:19;11.80;;;5.60;;
11827;SDS011;5971;49.646;8.568;2023-03-03T06:15:21;5.65;;;3.80;;
11827;SDS011;5971;49.646;8.568;2023-03-03T06:18:22;7.07;;;3.22;;
11827;SDS011;5971;49.646;8.568;2023-03-03T06:21:24;7.75;;;3.92;;
11827;SDS011;5971;49.646;8.568;2023-03-03T06:24:25;7.32;;;4.55;;
11827;SDS011;5971;49.646;8.568;2023-03-03T06:27:30;12.27;;;5.53;;
11827;SDS011;5971;49.646;8.568;2023-03-03T06:30:31;5.30;;;4.53;;
11827;SDS011;5971;49.646;8.568;2023-03-03T06:33:32;4.22;;;2.67;;
11827;SDS011;5971;49.646;8.568;2023-03-03T06:36:34;8.90;;;4.03;;
11827;SDS011;5971;49.646;8.568;2023-03-03T06:39:35;7.68;;;5.70;;
11827;SDS011;5971;49.646;8.568;2023-03-03T06:42:36;8.07;;;5.75;;
11827;SDS011;5971;49.646;8.568;2023-03-03T06:45:38;9.35;;;6.47;;
11827;SDS011;5971;49.646;8.568;2023-03-03T06:48:39;10.05;;;6.05;;
11827;SDS011;5971;49.646;8.568;2023-03-03T06:51:42;11.13;;;6.05;;
11827;SDS011;5971;49.646;8.568;2023-03-03T06:54:45;5.00;;;4.50;;
11827;SDS011;5971;49.646;8.568;2023-03-03T06:57:46;10.35;;;5.35;;
11827;SDS011;5971;49.646;8.568;2023-03-03T07:00:57;8.13;;;4.03;;
11827;SDS011;5971;49.646;8.568;2023-03-03T07:03:59;7.22;;;5.35;;
11827;SDS011;5971;49.646;8.568;2023-03-03T07:07:10;8.25;;;5.32;;
11827;SDS011;5971;49.646;8.568;2023-03-03T07:10:24;9.25;;;5.85;;
11827;SDS011;5971;49.646;8.568;2023-03-03T07:13:26;8.73;;;5.75;;
11827;SDS011;5971;49.646;8.568;2023-03-03T07:16:28;7.57;;;5.95;;
11827;SDS011;5971;49.646;8.568;2023-03-03T07:19:30;8.40;;;5.10;;
11827;SDS011;5971;49.646;8.568;2023-03-03T07:22:33;10.50;;;6.88;;
11827;SDS011;5971;49.646;8.568;2023-03-03T07:25:34;8.80;;;5.28;;
11827;SDS011;5971;49.646;8.568;2023-03-03T07:28:36;12.77;;;5.70;;
11827;SDS011;5971;49.646;8.568;2023-03-03T07:31:39;12.18;;;7.15;;
11827;SDS011;5971;49.646;8.568;2023-03-03T07:34:43;21.10;;;8.75;;
11827;SDS011;5971;49.646;8.568;2023-03-03T07:37:46;12.93;;;6.10;;
11827;SDS011;5971;49.646;8.568;2023-03-03T07:40:51;11.60;;;5.13;;
11827;SDS011;5971;49.646;8.568;2023-03-03T07:44:11;8.98;;;6.13;;
11827;SDS011;5971;49.646;8.568;2023-03-03T07:47:24;10.68;;;5.63;;
11827;SDS011;5971;49.646;8.568;2023-03-03T07:50:26;13.35;;;6.72;;
11827;SDS011;5971;49.646;8.568;2023-03-03T07:53:32;15.23;;;6.75;;
11827;SDS011;5971;49.646;8.568;2023-03-03T07:56:34;9.20;;;6.10;;
11827;SDS011;5971;49.646;8.568;2023-03-03T07:59:36;9.45;;;6.32;;
11827;SDS011;5971;49.646;8.568;2023-03-03T08:02:39;12.68;;;7.30;;
11827;SDS011;5971;49.646;8.568;2023-03-03T08:05:42;19.48;;;8.50;;
11827;SDS011;5971;49.646;8.568;2023-03-03T08:08:43;9.43;;;6.93;;
11827;SDS011;5971;49.646;8.568;2023-03-03T08:11:52;8.88;;;5.45;;
11827;SDS011;5971;49.646;8.568;2023-03-03T08:14:54;10.60;;;6.85;;
11827;SDS011;5971;49.646;8.568;2023-03-03T08:17:56;13.15;;;7.20;;
11827;SDS011;5971;49.646;8.568;2023-03-03T08:21:10;13.65;;;6.70;;
11827;SDS011;5971;49.646;8.568;2023-03-03T08:24:13;16.23;;;8.38;;
11827;SDS011;5971;49.646;8.568;2023-03-03T08:27:14;14.55;;;7.35;;
11827;SDS011;5971;49.646;8.568;2023-03-03T08:30:15;15.52;;;8.32;;
11827;SDS011;5971;49.646;8.568;2023-03-03T08:33:17;15.35;;;7.18;;
11827;SDS011;5971;49.646;8.568;2023-03-03T08:36:18;17.00;;;8.55;;
11827;SDS011;5971;49.646;8.568;2023-03-03T08:39:19;13.30;;;8.30;;
11827;SDS011;5971;49.646;8.568;2023-03-03T08:42:21;17.23;;;8.32;;
11827;SDS011;5971;49.646;8.568;2023-03-03T08:45:23;18.95;;;8.32;;
11827;SDS011;5971;49.646;8.568;2023-03-03T08:48:25;14.13;;;6.00;;
11827;SDS011;5971;49.646;8.568;2023-03-03T08:51:26;20.08;;;9.52;;
11827;SDS011;5971;49.646;8.568;2023-03-03T08:54:27;17.30;;;8.30;;
11827;SDS011;5971;49.646;8.568;2023-03-03T08:57:29;13.35;;;7.07;;
11827;SDS011;5971;49.646;8.568;2023-03-03T09:00:30;12.77;;;6.00;;
11827;SDS011;5971;49.646;8.568;2023-03-03T09:03:31;16.85;;;8.85;;
11827;SDS011;5971;49.646;8.568;2023-03-03T09:06:33;19.40;;;7.90;;
11827;SDS011;5971;49.646;8.568;2023-03-03T09:09:34;13.50;;;5.95;;
11827;SDS011;5971;49.646;8.568;2023-03-03T09:12:38;13.10;;;6.70;;
11827;SDS011;5971;49.646;8.568;2023-03-03T09:15:40;22.40;;;7.55;;
11827;SDS011;5971;49.646;8.568;2023-03-03T09:18:42;17.50;;;10.70;;
11827;SDS011;5971;49.646;8.568;2023-03-03T09:21:44;15.15;;;8.13;;
11827;SDS011;5971;49.646;8.568;2023-03-03T09:24:46;16.77;;;8.20;;
11827;SDS011;5971;49.646;8.568;2023-03-03T09:27:47;15.60;;;7.07;;
11827;SDS011;5971;49.646;8.568;2023-03-03T09:30:49;19.65;;;9.30;;
11827;SDS011;5971;49.646;8.568;2023-03-03T09:33:51;13.73;;;6.95;;
11827;SDS011;5971;49.646;8.568;2023-03-03T09:36:55;15.90;;;7.70;;
11827;SDS011;5971;49.646;8.568;2023-03-03T09:39:56;30.35;;;10.23;;
11827;SDS011;5971;49.646;8.568;2023-03-03T09:46:12;13.07;;;5.90;;
11827;SDS011;5971;49.646;8.568;2023-03-03T09:52:32;19.45;;;8.57;;
11827;SDS011;5971;49.646;8.568;2023-03-03T10:01:52;22.15;;;9.60;;
11827;SDS011;5971;49.646;8.568;2023-03-03T10:05:02;20.25;;;8.05;;
11827;SDS011;5971;49.646;8.568;2023-03-03T10:11:28;20.55;;;8.00;;
11827;SDS011;5971;49.646;8.568;2023-03-03T10:17:52;22.15;;;9.35;;
11827;SDS011;5971;49.646;8.568;2023-03-03T10:20:58;18.60;;;8.57;;
11827;SDS011;5971;49.646;8.568;2023-03-03T10:36:54;17.00;;;8.52;;
11827;SDS011;5971;49.646;8.568;2023-03-03T10:40:02;19.67;;;8.45;;
11827;SDS011;5971;49.646;8.568;2023-03-03T10:46:43;16.15;;;6.07;;
11827;SDS011;5971;49.646;8.568;2023-03-03T10:50:05;12.15;;;5.38;;
11827;SDS011;5971;49.646;8.568;2023-03-03T10:59:33;19.45;;;7.75;;
11827;SDS011;5971;49.646;8.568;2023-03-03T11:09:02;14.82;;;7.10;;
11827;SDS011;5971;49.646;8.568;2023-03-03T11:15:28;17.02;;;8.25;;
11827;SDS011;5971;49.646;8.568;2023-03-03T11:21:44;19.05;;;9.75;;
11827;SDS011;5971;49.646;8.568;2023-03-03T11:34:25;17.80;;;8.85;;
11827;SDS011;5971;49.646;8.568;2023-03-03T11:40:36;19.05;;;9.68;;
11827;SDS011;5971;49.646;8.568;2023-03-03T11:43:43;20.20;;;9.48;;
11827;SDS011;5971;49.646;8.568;2023-03-03T11:46:52;16.63;;;9.23;;
11827;SDS011;5971;49.646;8.568;2023-03-03T11:50:02;19.13;;;9.18;;
11827;SDS011;5971;49.646;8.568;2023-03-03T11:56:29;19.63;;;9.15;;
11827;SDS011;5971;49.646;8.568;2023-03-03T11:59:39;18.05;;;9.05;;
11827;SDS011;5971;49.646;8.568;2023-03-03T12:03:09;15.98;;;8.15;;
11827;SDS011;5971;49.646;8.568;2023-03-03T12:12:38;16.40;;;8.50;;
11827;SDS011;5971;49.646;8.568;2023-03-03T12:15:50;17.50;;;8.85;;
11827;SDS011;5971;49.646;8.568;2023-03-03T12:19:14;18.95;;;9.52;;
11827;SDS011;5971;49.646;8.568;2023-03-03T12:25:20;17.42;;;8.27;;
11827;SDS011;5971;49.646;8.568;2023-03-03T12:28:30;18.67;;;9.95;;
11827;SDS011;5971;49.646;8.568;2023-03-03T12:34:55;16.67;;;8.88;;
11827;SDS011;5971;49.646;8.568;2023-03-03T12:41:02;17.75;;;9.95;;
11827;SDS011;5971;49.646;8.568;2023-03-03T12:44:12;14.55;;;8.15;;
11827;SDS011;5971;49.646;8.568;2023-03-03T12:59:39;18.83;;;8.98;;
11827;SDS011;5971;49.646;8.568;2023-03-03T13:15:27;14.43;;;7.97;;
11827;SDS011;5971;49.646;8.568;2023-03-03T13:18:38;16.48;;;8.40;;
11827;SDS011;5971;49.646;8.568;2023-03-03T13:21:54;16.15;;;8.38;;
11827;SDS011;5971;49.646;8.568;2023-03-03T13:25:02;16.27;;;8.98;;
11827;SDS011;5971;49.646;8.568;2023-03-03T13:28:25;17.48;;;9.63;;
11827;SDS011;5971;49.646;8.568;2023-03-03T13:31:30;14.57;;;7.82;;
11827;SDS011;5971;49.646;8.568;2023-03-03T13:34:38;15.15;;;7.85;;
11827;SDS011;5971;49.646;8.568;2023-03-03T13:37:41;15.07;;;7.40;;
11827;SDS011;5971;49.646;8.568;2023-03-03T13:40:45;16.38;;;8.73;;
11827;SDS011;5971;49.646;8.568;2023-03-03T13:43:51;15.00;;;7.53;;
11827;SDS011;5971;49.646;8.568;2023-03-03T13:59:20;16.05;;;7.53;;
11827;SDS011;5971;49.646;8.568;2023-03-03T14:11:40;15.05;;;7.70;;
11827;SDS011;5971;49.646;8.568;2023-03-03T14:14:54;14.50;;;7.10;;
11827;SDS011;5971;49.646;8.568;2023-03-03T14:21:02;12.77;;;7.28;;
11827;SDS011;5971;49.646;8.568;2023-03-03T14:24:15;13.15;;;6.97;;
11827;SDS011;5971;49.646;8.568;2023-03-03T14:27:22;15.38;;;7.40;;
11827;SDS011;5971;49.646;8.568;2023-03-03T14:30:32;12.77;;;6.82;;
11827;SDS011;5971;49.646;8.568;2023-03-03T14:33:34;13.73;;;7.22;;
11827;SDS011;5971;49.646;8.568;2023-03-03T14:36:37;15.18;;;6.90;;
11827;SDS011;5971;49.646;8.568;2023-03-03T14:39:39;13.35;;;7.05;;
11827;SDS011;5971;49.646;8.568;2023-03-03T14:42:48;13.98;;;6.70;;
11827;SDS011;5971;49.646;8.568;2023-03-03T14:45:54;14.63;;;6.57;;
11827;SDS011;5971;49.646;8.568;2023-03-03T14:48:57;12.63;;;6.32;;
11827;SDS011;5971;49.646;8.568;2023-03-03T14:52:41;17.25;;;7.10;;
11827;SDS011;5971;49.646;8.568;2023-03-03T14:55:29;11.75;;;5.75;;
11827;SDS011;5971;49.646;8.568;2023-03-03T14:58:39;12.40;;;6.28;;
11827;SDS011;5971;49.646;8.568;2023-03-03T15:01:41;11.38;;;6.28;;
11827;SDS011;5971;49.646;8.568;2023-03-03T15:04:43;12.80;;;5.57;;
11827;SDS011;5971;49.646;8.568;2023-03-03T15:07:45;9.80;;;5.03;;
11827;SDS011;5971;49.646;8.568;2023-03-03T15:10:47;12.43;;;5.38;;
11827;SDS011;5971;49.646;8.568;2023-03-03T15:13:48;12.32;;;6.45;;
11827;SDS011;5971;49.646;8.568;2023-03-03T15:16:50;12.18;;;5.50;;
11827;SDS011;5971;49.646;8.568;2023-03-03T15:23:05;12.93;;;6.15;;
11827;SDS011;5971;49.646;8.568;2023-03-03T15:29:21;10.45;;;5.15;;
11827;SDS011;5971;49.646;8.568;2023-03-03T15:32:26;14.73;;;5.60;;
11827;SDS011;5971;49.646;8.568;2023-03-03T15:35:46;12.20;;;5.22;;
11827;SDS011;5971;49.646;8.568;2023-03-03T15:41:58;10.25;;;4.60;;
11827;SDS011;5971;49.646;8.568;2023-03-03T16:03:30;11.38;;;4.80;;
11827;SDS011;5971;49.646;8.568;2023-03-03T16:15:54;12.23;;;4.25;;
11827;SDS011;5971;49.646;8.568;2023-03-03T16:31:52;11.68;;;5.22;;
11827;SDS011;5971;49.646;8.568;2023-03-03T16:35:04;15.38;;;8.13;;
11827;SDS011;5971;49.646;8.568;2023-03-03T16:38:16;16.92;;;7.85;;
11827;SDS011;5971;49.646;8.568;2023-03-03T16:41:26;14.80;;;7.90;;
11827;SDS011;5971;49.646;8.568;2023-03-03T16:44:31;22.30;;;8.10;;
11827;SDS011;5971;49.646;8.568;2023-03-03T16:53:49;14.65;;;6.28;;
11827;SDS011;5971;49.646;8.568;2023-03-03T16:56:56;13.48;;;6.18;;
11827;SDS011;5971;49.646;8.568;2023-03-03T17:00:08;12.90;;;6.07;;
11827;SDS011;5971;49.646;8.568;2023-03-03T17:03:27;12.63;;;5.22;;
11827;SDS011;5971;49.646;8.568;2023-03-03T17:06:36;8.40;;;4.10;;
11827;SDS011;5971;49.646;8.568;2023-03-03T17:09:50;8.93;;;4.82;;
11827;SDS011;5971;49.646;8.568;2023-03-03T17:25:32;9.20;;;4.15;;
11827;SDS011;5971;49.646;8.568;2023-03-03T17:44:34;7.35;;;3.95;;
11827;SDS011;5971;49.646;8.568;2023-03-03T17:57:33;9.90;;;4.30;;
11827;SDS011;5971;49.646;8.568;2023-03-03T18:04:31;6.68;;;3.85;;
11827;SDS011;5971;49.646;8.568;2023-03-03T18:26:33;9.35;;;4.47;;
11827;SDS011;5971;49.646;8.568;2023-03-03T18:29:35;9.30;;;4.82;;
11827;SDS011;5971;49.646;8.568;2023-03-03T18:32:41;9.82;;;5.13;;
11827;SDS011;5971;49.646;8.568;2023-03-03T18:35:44;10.35;;;4.65;;
11827;SDS011;5971;49.646;8.568;2023-03-03T18:38:46;8.70;;;4.80;;
11827;SDS011;5971;49.646;8.568;2023-03-03T18:48:25;6.97;;;4.22;;
11827;SDS011;5971;49.646;8.568;2023-03-03T18:54:57;7.80;;;5.75;;
11827;SDS011;5971;49.646;8.568;2023-03-03T19:04:33;7.65;;;4.90;;
11827;SDS011;5971;49.646;8.568;2023-03-03T19:13:51;8.25;;;4.35;;
11827;SDS011;5971;49.646;8.568;2023-03-03T19:20:23;12.05;;;7.97;;
11827;SDS011;5971;49.646;8.568;2023-03-03T19:29:48;12.52;;;6.75;;
11827;SDS011;5971;49.646;8.568;2023-03-03T19:36:04;9.07;;;5.82;;
11827;SDS011;5971;49.646;8.568;2023-03-03T19:39:23;7.38;;;4.72;;
11827;SDS011;5971;49.646;8.568;2023-03-03T19:42:39;9.05;;;3.92;;
11827;SDS011;5971;49.646;8.568;2023-03-03T20:12:09;5.95;;;3.17;;
11827;SDS011;5971;49.646;8.568;2023-03-03T20:15:16;5.95;;;4.25;;
11827;SDS011;5971;49.646;8.568;2023-03-03T20:18:34;6.72;;;3.65;;
11827;SDS011;5971;49.646;8.568;2023-03-03T20:21:43;5.72;;;3.83;;
11827;SDS011;5971;49.646;8.568;2023-03-03T20:25:07;7.10;;;4.20;;
11827;SDS011;5971;49.646;8.568;2023-03-03T20:34:33;9.15;;;3.17;;
11827;SDS011;5971;49.646;8.568;2023-03-03T20:47:31;7.75;;;4.82;;
11827;SDS011;5971;49.646;8.568;2023-03-03T21:00:06;4.72;;;3.10;;
11827;SDS011;5971;49.646;8.568;2023-03-03T21:03:24;4.60;;;3.13;;
11827;SDS011;5971;49.646;8.568;2023-03-03T21:06:35;6.00;;;4.55;;
11827;SDS011;5971;49.646;8.568;2023-03-03T21:09:38;5.90;;;3.10;;
11827;SDS011;5971;49.646;8.568;2023-03-03T21:12:40;5.07;;;3.55;;
11827;SDS011;5971;49.646;8.568;2023-03-03T21:15:41;5.32;;;3.90;;
11827;SDS011;5971;49.646;8.568;2023-03-03T21:18:50;5.28;;;2.92;;
11827;SDS011;5971;49.646;8.568;2023-03-03T21:21:55;5.82;;;2.60;;
11827;SDS011;5971;49.646;8.568;2023-03-03T21:24:57;5.15;;;3.65;;
11827;SDS011;5971;49.646;8.568;2023-03-03T21:31:52;6.07;;;3.00;;
11827;SDS011;5971;49.646;8.568;2023-03-03T21:35:03;6.18;;;3.50;;
11827;SDS011;5971;49.646;8.568;2023-03-03T21:38:04;5.43;;;3.33;;
11827;SDS011;5971;49.646;8.568;2023-03-03T21:41:06;9.38;;;4.05;;
11827;SDS011;5971;49.646;8.568;2023-03-03T21:44:27;6.15;;;2.70;;
11827;SDS011;5971;49.646;8.568;2023-03-03T21:47:29;6.15;;;3.97;;
11827;SDS011;5971;49.646;8.568;2023-03-03T21:50:30;2.95;;;2.45;;
11827;SDS011;5971;49.646;8.568;2023-03-03T21:53:32;6.03;;;3.47;;
11827;SDS011;5971;49.646;8.568;2023-03-03T21:56:34;5.78;;;3.40;;
11827;SDS011;5971;49.646;8.568;2023-03-03T21:59:38;5.90;;;4.40;;
11827;SDS011;5971;49.646;8.568;2023-03-03T22:02:39;6.03;;;3.83;;
11827;SDS011;5971;49.646;8.568;2023-03-03T22:05:40;3.90;;;2.95;;
11827;SDS011;5971;49.646;8.568;2023-03-03T22:08:42;5.72;;;3.10;;
11827;SDS011;5971;49.646;8.568;2023-03-03T22:11:43;4.70;;;3.42;;
11827;SDS011;5971;49.646;8.568;2023-03-03T22:14:45;3.38;;;2.33;;
11827;SDS011;5971;49.646;8.568;2023-03-03T22:17:46;4.30;;;2.45;;
11827;SDS011;5971;49.646;8.568;2023-03-03T22:20:48;5.75;;;3.45;;
11827;SDS011;5971;49.646;8.568;2023-03-03T22:23:50;3.85;;;3.08;;
11827;SDS011;5971;49.646;8.568;2023-03-03T22:26:51;5.13;;;3.13;;
11827;SDS011;5971;49.646;8.568;2023-03-03T22:29:53;5.13;;;2.88;;
11827;SDS011;5971;49.646;8.568;2023-03-03T22:32:54;6.80;;;3.28;;
11827;SDS011;5971;49.646;8.568;2023-03-03T22:35:56;2.33;;;1.27;;
11827;SDS011;5971;49.646;8.568;2023-03-03T22:38:57;3.83;;;2.72;;
11827;SDS011;5971;49.646;8.568;2023-03-03T22:41:58;3.20;;;2.55;;
11827;SDS011;5971;49.646;8.568;2023-03-03T22:45:00;8.95;;;4.78;;
11827;SDS011;5971;49.646;8.568;2023-03-03T22:48:01;5.38;;;4.15;;
11827;SDS011;5971;49.646;8.568;2023-03-03T22:51:03;5.20;;;3.80;;
11827;SDS011;5971;49.646;8.568;2023-03-03T22:54:04;3.97;;;3.13;;
11827;SDS011;5971;49.646;8.568;2023-03-03T22:57:05;4.47;;;4.05;;
11827;SDS011;5971;49.646;8.568;2023-03-03T23:00:07;7.15;;;3.88;;
11827;SDS011;5971;49.646;8.568;2023-03-03T23:03:11;7.35;;;3.55;;
11827;SDS011;5971;49.646;8.568;2023-03-03T23:06:13;6.15;;;5.45;;
11827;SDS011;5971;49.646;8.568;2023-03-03T23:09:14;10.80;;;4.63;;
11827;SDS011;5971;49.646;8.568;2023-03-03T23:12:15;5.03;;;3.22;;
11827;SDS011;5971;49.646;8.568;2023-03-03T23:15:17;9.30;;;4.53;;
11827;SDS011;5971;49.646;8.568;2023-03-03T23:18:18;5.85;;;3.75;;
11827;SDS011;5971;49.646;8.568;2023-03-03T23:21:19;4.18;;;3.08;;
11827;SDS011;5971;49.646;8.568;2023-03-03T23:24:21;5.00;;;3.53;;
11827;SDS011;5971;49.646;8.568;2023-03-03T23:27:22;5.20;;;4.15;;
11827;SDS011;5971;49.646;8.568;2023-03-03T23:30:23;7.70;;;3.92;;
11827;SDS011;5971;49.646;8.568;2023-03-03T23:33:25;5.10;;;3.88;;
11827;SDS011;5971;49.646;8.568;2023-03-03T23:36:26;7.85;;;4.53;;
11827;SDS011;5971;49.646;8.568;2023-03-03T23:39:27;7.85;;;2.95;;
11827;SDS011;5971;49.646;8.568;2023-03-03T23:42:28;8.23;;;4.15;;
11827;SDS011;5971;49.646;8.568;2023-03-03T23:45:30;6.07;;;3.08;;
11827;SDS011;5971;49.646;8.568;2023-03-03T23:48:32;11.35;;;4.80;;
11827;SDS011;5971;49.646;8.568;2023-03-03T23:51:33;7.57;;;3.58;;
11827;SDS011;5971;49.646;8.568;2023-03-03T23:54:34;8.98;;;4.47;;
11827;SDS011;5971;49.646;8.568;2023-03-03T23:57:36;5.50;;;4.10;;
